De Xin Hai — BQBP — position and weather

sailwx.info

Track history (hours):
 
Tides and Currents Weather Stations Pressure Air Temp Water Temp Dewpoint Dewpoint Depression Visibility Wind Speed Wind Dir Waves Ship Positions

De Xin Hai

Last reported at 2017-Apr-25 23:43 UTC. Time now 2017-Apr-28 08:19 UTC.
Position N 37°24' E 122°47'.

Length 225 m; draft 6.9 m.

Type: Cargo ship. MMSI: 367344200.

Date/timePositionNaut miles runAvg speedWind from/ knotsBaromVisibWave heightAir tempDewpointWater temp
2017-Apr-25 23:43N 37°24' E 122°47'210.4
2017-Apr-25 23:30N 37°27' E 122°46'510.4
2017-Apr-25 23:00N 37°31' E 122°42'5 9.8
2017-Apr-25 22:30N 37°35' E 122°38'510.2
2017-Apr-25 22:00N 37°37' E 122°33'510.2
2017-Apr-25 21:30N 37°41' E 122°28'510.5
2017-Apr-25 21:00N 37°44' E 122°23'510.6
2017-Apr-25 20:30N 37°47' E 122°17'711.3
2017-Apr-25 19:54N 37°51' E 122°10'511.6
2017-Apr-25 19:30N 37°54' E 122°05'611.7
2017-Apr-25 19:00N 37°57' E 121°60'611.9
2017-Apr-25 18:30N 38°01' E 121°53'612.0
2017-Apr-25 18:00N 38°04' E 121°47'611.9
2017-Apr-25 17:30N 38°07' E 121°41'611.8
2017-Apr-25 17:00N 38°11' E 121°35'611.7
2017-Apr-25 16:30N 38°14' E 121°29'611.4
2017-Apr-25 16:00N 38°17' E 121°23'511.2
2017-Apr-25 15:30N 38°21' E 121°17'610.9
2017-Apr-25 14:59N 38°24' E 121°11'1110.9
2017-Apr-25 14:00N 38°30' E 120°60'2011.1
2017-Apr-25 12:13N 38°35' E 120°36'311.5
2017-Apr-25 12:00N 38°35' E 120°32'911.7
2017-Apr-25 11:12N 38°37' E 120°21'211.9
2017-Apr-25 11:00N 38°37' E 120°17'712.2
2017-Apr-25 10:25N 38°38' E 120°08'812.3
2017-Apr-25 09:46N 38°39' E 119°58'312.3
2017-Apr-25 09:30N 38°40' E 119°54'612.8
2017-Apr-25 09:00N 38°41' E 119°46'612.8
2017-Apr-25 08:30N 38°41' E 119°38'612.6
2017-Apr-25 08:00N 38°42' E 119°30'612.4
2017-Apr-25 07:30N 38°43' E 119°22'13 9.8
2017-Apr-25 06:08N 38°45' E 119°05'211.2
2017-Apr-25 06:00N 38°45' E 119°03'510.7
2017-Apr-25 05:30N 38°46' E 118°56'610.5
2017-Apr-25 04:58N 38°47' E 118°49'610.4
2017-Apr-25 04:26N 38°48' E 118°42'410.4
2017-Apr-25 04:00N 38°48' E 118°37'510.2
2017-Apr-25 03:30N 38°49' E 118°30'510.1
2017-Apr-25 03:00N 38°50' E 118°24'29 2.9
2017-Apr-24 16:50N 38°58' E 117°47'0 0.0
2017-Apr-23 10:38N 38°58' E 117°47'  
2017-Apr-20 09:45N 38°47' E 119°10'414.9
2017-Apr-20 09:30N 38°47' E 119°14'814.8
2017-Apr-20 08:59N 38°46' E 119°24'714.8
2017-Apr-20 08:30N 38°45' E 119°33'814.5
2017-Apr-20 07:58N 38°44' E 119°43'714.2
2017-Apr-20 07:30N 38°43' E 119°51'714.0
2017-Apr-20 07:00N 38°42' E 120°00'713.9
2017-Apr-20 06:30N 38°41' E 120°09'713.5
2017-Apr-20 06:00N 38°40' E 120°18'2312.4
2017-Apr-20 04:08N 38°38' E 120°47'512.1
2017-Apr-20 03:42N 38°37' E 120°54'1212.5
2017-Apr-20 02:42N 38°31' E 121°08'713.2
2017-Apr-20 02:10N 38°28' E 121°16'313.5
2017-Apr-20 01:57N 38°26' E 121°19'2613.4
2017-Apr-20 00:00N 38°11' E 121°46'613.0
2017-Apr-19 23:30N 38°07' E 121°53'712.8
2017-Apr-19 22:55N 38°03' E 122°01'512.8
2017-Apr-19 22:29N 38°00' E 122°07'2512.7
2017-Apr-19 20:31N 37°46' E 122°32'  
Track history (hours):
 
Tides and Currents Weather Stations Pressure Air Temp Water Temp Dewpoint Dewpoint Depression Visibility Wind Speed Wind Dir Waves Ship Positions

De Xin Hai

Last reported at 2017-Apr-25 23:43 UTC. Time now 2017-Apr-28 08:19 UTC.
Position N 37°24' E 122°47'.

Length 225 m; draft 6.9 m.

Type: Cargo ship. MMSI: 367344200.

Date/timePositionNaut miles runAvg speedWind from/ knotsBaromVisibWave heightAir tempDewpointWater temp
2017-Apr-25 23:43N 37°24' E 122°47'210.4
2017-Apr-25 23:30N 37°27' E 122°46'510.4
2017-Apr-25 23:00N 37°31' E 122°42'5 9.8
2017-Apr-25 22:30N 37°35' E 122°38'510.2
2017-Apr-25 22:00N 37°37' E 122°33'510.2
2017-Apr-25 21:30N 37°41' E 122°28'510.5
2017-Apr-25 21:00N 37°44' E 122°23'510.6
2017-Apr-25 20:30N 37°47' E 122°17'711.3
2017-Apr-25 19:54N 37°51' E 122°10'511.6
2017-Apr-25 19:30N 37°54' E 122°05'611.7
2017-Apr-25 19:00N 37°57' E 121°60'611.9
2017-Apr-25 18:30N 38°01' E 121°53'612.0
2017-Apr-25 18:00N 38°04' E 121°47'611.9
2017-Apr-25 17:30N 38°07' E 121°41'611.8
2017-Apr-25 17:00N 38°11' E 121°35'611.7
2017-Apr-25 16:30N 38°14' E 121°29'611.4
2017-Apr-25 16:00N 38°17' E 121°23'511.2
2017-Apr-25 15:30N 38°21' E 121°17'610.9
2017-Apr-25 14:59N 38°24' E 121°11'1110.9
2017-Apr-25 14:00N 38°30' E 120°60'2011.1
2017-Apr-25 12:13N 38°35' E 120°36'311.5
2017-Apr-25 12:00N 38°35' E 120°32'911.7
2017-Apr-25 11:12N 38°37' E 120°21'211.9
2017-Apr-25 11:00N 38°37' E 120°17'712.2
2017-Apr-25 10:25N 38°38' E 120°08'812.3
2017-Apr-25 09:46N 38°39' E 119°58'312.3
2017-Apr-25 09:30N 38°40' E 119°54'612.8
2017-Apr-25 09:00N 38°41' E 119°46'612.8
2017-Apr-25 08:30N 38°41' E 119°38'612.6
2017-Apr-25 08:00N 38°42' E 119°30'612.4
2017-Apr-25 07:30N 38°43' E 119°22'13 9.8
2017-Apr-25 06:08N 38°45' E 119°05'211.2
2017-Apr-25 06:00N 38°45' E 119°03'510.7
2017-Apr-25 05:30N 38°46' E 118°56'610.5
2017-Apr-25 04:58N 38°47' E 118°49'610.4
2017-Apr-25 04:26N 38°48' E 118°42'410.4
2017-Apr-25 04:00N 38°48' E 118°37'510.2
2017-Apr-25 03:30N 38°49' E 118°30'510.1
2017-Apr-25 03:00N 38°50' E 118°24'29 2.9
2017-Apr-24 16:50N 38°58' E 117°47'0 0.0
2017-Apr-23 10:38N 38°58' E 117°47'  
2017-Apr-20 09:45N 38°47' E 119°10'414.9
2017-Apr-20 09:30N 38°47' E 119°14'814.8
2017-Apr-20 08:59N 38°46' E 119°24'714.8
2017-Apr-20 08:30N 38°45' E 119°33'814.5
2017-Apr-20 07:58N 38°44' E 119°43'714.2
2017-Apr-20 07:30N 38°43' E 119°51'714.0
2017-Apr-20 07:00N 38°42' E 120°00'713.9
2017-Apr-20 06:30N 38°41' E 120°09'713.5
2017-Apr-20 06:00N 38°40' E 120°18'2312.4
2017-Apr-20 04:08N 38°38' E 120°47'512.1
2017-Apr-20 03:42N 38°37' E 120°54'1212.5
2017-Apr-20 02:42N 38°31' E 121°08'713.2
2017-Apr-20 02:10N 38°28' E 121°16'313.5
2017-Apr-20 01:57N 38°26' E 121°19'2613.4
2017-Apr-20 00:00N 38°11' E 121°46'613.0
2017-Apr-19 23:30N 38°07' E 121°53'712.8
2017-Apr-19 22:55N 38°03' E 122°01'512.8
2017-Apr-19 22:29N 38°00' E 122°07'2512.7
2017-Apr-19 20:31N 37°46' E 122°32'  

Dump ship's entire track history